Burton upon Trent, United Kingdom
Current Conditions -  °F | °C
As of 7:20 PM on Tuesday 21 Oct 2014 (Local Time) from EGNX Reporting Station
Scattered Clouds Scattered Clouds  
Wind Chill: 37°   Ceiling: Unl
Heat Index: 45°   Visibility: 6mi
Dew Point: 39°   Wind: 20mph
Humidity: 81%   Direction: 280°W
Pressure: 29.94"   Gusts: NA
Location:  52.81°N, 1.64°W
Report Text: EGNX 211820Z 28017KT 9999 SCT028 07/04 Q1014
Loading
Personal Weather Stations






























Interactive Weather Map
Tropical Storm Tracking
New forecast layout! Learn more

10-Day Weather Forecast

Advertisements
Track Severe Weather on mobile